Terminal Aerodrome Forecast
Issued by NWS

Home | Current Version | Previous Version | Graphics & Text | Print | Product List | Glossary On
Versions: 1 2 3 4 5 6 7 8 9 10 11 12 13 14 15 16 17 18 19 20 21
000
FTUS43 KGRB 241727
TAFMTW
TAF
KMTW 241727Z 2418/2518 28011G20KT P6SM BKN035
     FM242100 28012G19KT P6SM VCSH SCT040 BKN080
      TEMPO 2421/2424 -SHRA OVC035
     FM250000 29008KT P6SM -SHRA BKN150
     FM250400 28007KT P6SM BKN110
     FM250600 29007KT P6SM BKN090
     FM251500 29010KT P6SM BKN045=

USA.gov is the U.S. government's official web portal to all federal, state and local government web resources and services.